Zenith Leader — 2ACU6 — position and weather

sailwx.info

Track history (hours):
 
Tides and Currents Weather Stations Pressure Air Temp Water Temp Dewpoint Dewpoint Depression Visibility Wind Speed Wind Dir Waves Ship Positions

Zenith Leader

Last reported at 2015-Feb-26 20:19 UTC. Time now 2015-Feb-28 14:02 UTC.
Position N 34°39' E 139°40'.

Length 199 m; draft 6.8 m.

Type: Cargo ship. MMSI: 235058697.

Date/timePositionNaut miles runAvg speedWind from/ knotsBaromVisibWave heightAir tempDewpointWater temp
2015-Feb-26 20:19N 34°39' E 139°40'1215.5
2015-Feb-26 19:32N 34°51' E 139°40'1515.8
2015-Feb-26 18:34N 35°07' E 139°44'1111.2
2015-Feb-26 17:33N 35°18' E 139°44'10 9.7
2015-Feb-26 16:33N 35°27' E 139°41'0 0.1
2015-Feb-26 15:33N 35°27' E 139°41'0 0.0
2015-Feb-26 14:33N 35°27' E 139°41'0 0.0
2015-Feb-26 13:33N 35°27' E 139°41'0 0.0
2015-Feb-26 12:33N 35°27' E 139°41'0 0.0
2015-Feb-26 11:33N 35°27' E 139°41'2 2.5
2015-Feb-26 10:34N 35°26' E 139°43'7 6.7
2015-Feb-26 09:34N 35°29' E 139°51'10 9.5
2015-Feb-26 08:33N 35°34' E 140°01'13 1.1
2015-Feb-25 21:11N 35°26' E 139°48'812.3
2015-Feb-25 20:33N 35°19' E 139°44'1010.2
2015-Feb-25 19:33N 35°09' E 139°46'5 4.7
2015-Feb-25 18:33N 35°05' E 139°44'7 6.7
2015-Feb-25 17:33N 34°58' E 139°41'8 7.8
2015-Feb-25 16:33N 34°51' E 139°44'  
Track history (hours):
 
Tides and Currents Weather Stations Pressure Air Temp Water Temp Dewpoint Dewpoint Depression Visibility Wind Speed Wind Dir Waves Ship Positions

Zenith Leader

Last reported at 2015-Feb-26 20:19 UTC. Time now 2015-Feb-28 14:02 UTC.
Position N 34°39' E 139°40'.

Length 199 m; draft 6.8 m.

Type: Cargo ship. MMSI: 235058697.

Date/timePositionNaut miles runAvg speedWind from/ knotsBaromVisibWave heightAir tempDewpointWater temp
2015-Feb-26 20:19N 34°39' E 139°40'1215.5
2015-Feb-26 19:32N 34°51' E 139°40'1515.8
2015-Feb-26 18:34N 35°07' E 139°44'1111.2
2015-Feb-26 17:33N 35°18' E 139°44'10 9.7
2015-Feb-26 16:33N 35°27' E 139°41'0 0.1
2015-Feb-26 15:33N 35°27' E 139°41'0 0.0
2015-Feb-26 14:33N 35°27' E 139°41'0 0.0
2015-Feb-26 13:33N 35°27' E 139°41'0 0.0
2015-Feb-26 12:33N 35°27' E 139°41'0 0.0
2015-Feb-26 11:33N 35°27' E 139°41'2 2.5
2015-Feb-26 10:34N 35°26' E 139°43'7 6.7
2015-Feb-26 09:34N 35°29' E 139°51'10 9.5
2015-Feb-26 08:33N 35°34' E 140°01'13 1.1
2015-Feb-25 21:11N 35°26' E 139°48'812.3
2015-Feb-25 20:33N 35°19' E 139°44'1010.2
2015-Feb-25 19:33N 35°09' E 139°46'5 4.7
2015-Feb-25 18:33N 35°05' E 139°44'7 6.7
2015-Feb-25 17:33N 34°58' E 139°41'8 7.8
2015-Feb-25 16:33N 34°51' E 139°44'  

Dump ship's entire track history